createdAt,value
2019-04-29T00:00:48.996Z,102555.08
2019-04-29T00:02:50.983Z,102547.39
2019-04-29T00:04:53.257Z,102553.42
2019-04-29T00:06:54.909Z,102558.92
2019-04-29T00:08:56.999Z,102555.07
2019-04-29T00:10:59.158Z,102558.38
2019-04-29T00:13:01.228Z,102557.52
2019-04-29T00:15:20.473Z,102563.30
2019-04-29T00:17:35.265Z,102563.86
2019-04-29T00:20:04.979Z,102559.43
2019-04-29T00:22:07.511Z,102562.73
2019-04-29T00:24:09.496Z,102565.75
2019-04-29T00:26:11.769Z,102567.40
2019-04-29T00:28:14.203Z,102570.94
2019-04-29T00:30:20.214Z,102569.88
2019-04-29T00:32:22.464Z,102566.82
2019-04-29T00:34:24.727Z,102575.06
2019-04-29T00:36:30.544Z,102578.59
2019-04-29T00:41:28.998Z,102580.23
2019-04-29T00:43:50.708Z,102581.33
2019-04-29T00:45:52.707Z,102580.78
2019-04-29T00:47:54.825Z,102586.27
2019-04-29T00:49:57.279Z,102594.23
2019-04-29T00:51:59.304Z,102592.91
2019-04-29T00:54:07.346Z,102592.83
2019-04-29T00:56:09.354Z,102592.27
2019-04-29T00:58:11.364Z,102594.73
2019-04-29T01:00:23.296Z,102594.73
2019-04-29T01:02:25.398Z,102590.34
2019-04-29T01:04:27.453Z,102597.70
2019-04-29T01:06:29.466Z,102594.14
2019-04-29T01:08:31.620Z,102599.37
2019-04-29T01:10:33.808Z,102599.89
2019-04-29T01:12:37.882Z,102599.03
2019-04-29T01:14:39.916Z,102603.73
2019-04-29T01:16:42.202Z,102608.14
2019-04-29T01:18:44.220Z,102606.53
2019-04-29T01:20:46.237Z,102613.91
2019-04-29T01:22:48.587Z,102610.07
2019-04-29T01:24:50.623Z,102615.82
2019-04-29T01:27:10.877Z,102608.69
2019-04-29T01:29:13.792Z,102618.55
2019-04-29T01:31:23.744Z,102622.70
2019-04-29T01:33:25.956Z,102618.91
2019-04-29T01:35:27.955Z,102621.31
2019-04-29T01:37:41.278Z,102613.57
2019-04-29T01:39:48.989Z,102619.61
2019-04-29T01:42:06.934Z,102622.67
2019-04-29T01:44:08.982Z,102623.77
2019-04-29T01:46:11.021Z,102622.36
2019-04-29T01:48:13.054Z,102625.08
2019-04-29T01:50:15.046Z,102626.95
2019-04-29T01:52:17.324Z,102630.48
2019-04-29T01:54:19.317Z,102630.56
2019-04-29T01:56:21.377Z,102628.09
2019-04-29T01:58:23.522Z,102624.54
2019-04-29T02:00:25.501Z,102622.91
2019-04-29T02:02:27.845Z,102622.63
2019-04-29T02:04:29.843Z,102628.39
2019-04-29T02:06:31.853Z,102627.00
2019-04-29T02:08:34.086Z,102627.84
2019-04-29T02:10:36.057Z,102628.95
2019-04-29T02:12:38.069Z,102632.29
2019-04-29T02:14:40.339Z,102629.48
2019-04-29T02:16:42.336Z,102638.59
2019-04-29T02:18:44.366Z,102639.16
2019-04-29T02:20:46.382Z,102641.62
2019-04-29T02:22:54.915Z,102635.58
2019-04-29T02:25:02.263Z,102638.61
2019-04-29T02:27:05.821Z,102644.64
2019-04-29T02:29:08.012Z,102652.94
2019-04-29T02:31:28.761Z,102653.80
2019-04-29T02:33:30.746Z,102652.12
2019-04-29T02:35:32.771Z,102651.07
2019-04-29T02:37:38.197Z,102650.48
2019-04-29T02:39:45.795Z,102650.75
2019-04-29T02:42:19.611Z,102653.54
2019-04-29T02:44:21.858Z,102657.39
2019-04-29T02:46:23.913Z,102658.54
2019-04-29T02:48:29.991Z,102657.98
2019-04-29T02:50:29.806Z,102653.64
2019-04-29T02:52:31.771Z,102661.33
2019-04-29T02:54:33.854Z,102660.00
2019-04-29T02:56:36.042Z,102655.05
2019-04-29T02:58:47.426Z,102661.06
2019-04-29T03:01:09.183Z,102658.86
2019-04-29T03:03:17.357Z,102655.80
2019-04-29T03:05:25.733Z,102654.42
2019-04-29T03:07:28.045Z,102655.19
2019-04-29T03:09:31.693Z,102661.50
2019-04-29T03:11:33.726Z,102660.95
2019-04-29T03:13:35.688Z,102662.55
2019-04-29T03:15:41.606Z,102660.34
2019-04-29T03:17:43.993Z,102662.27
2019-04-29T03:20:05.145Z,102667.70
2019-04-29T03:22:08.011Z,102663.02
2019-04-29T03:24:10.035Z,102663.58
2019-04-29T03:26:12.054Z,102667.95
2019-04-29T03:28:14.066Z,102669.83
2019-04-29T03:30:19.201Z,102656.16
2019-04-29T03:32:21.184Z,102656.16
2019-04-29T03:34:23.285Z,102665.99
2019-04-29T03:36:25.367Z,102668.22
2019-04-29T03:38:27.431Z,102671.19
2019-04-29T03:40:29.517Z,102672.83
2019-04-29T03:42:31.583Z,102667.91
2019-04-29T03:44:34.724Z,102672.34
2019-04-29T03:46:36.775Z,102670.70
2019-04-29T03:48:38.970Z,102665.99
2019-04-29T03:50:41.353Z,102670.09
2019-04-29T03:52:43.184Z,102669.26
2019-04-29T03:54:45.344Z,102673.64
2019-04-29T03:56:47.367Z,102674.42
2019-04-29T03:58:49.365Z,102678.30
2019-04-29T04:00:55.147Z,102681.78
2019-04-29T04:03:13.804Z,102681.22
2019-04-29T04:05:53.774Z,102680.45
2019-04-29T04:08:07.193Z,102685.62
2019-04-29T04:10:09.541Z,102685.13
2019-04-29T04:12:11.137Z,102690.55
2019-04-29T04:14:15.794Z,102691.16
2019-04-29T04:16:28.140Z,102687.27
2019-04-29T04:18:32.079Z,102687.31
2019-04-29T04:20:34.377Z,102688.92
2019-04-29T04:22:46.079Z,102687.63
2019-04-29T04:24:50.984Z,102684.58
2019-04-29T04:26:53.189Z,102684.25
2019-04-29T04:28:55.307Z,102688.36
2019-04-29T04:30:57.535Z,102680.38
2019-04-29T04:32:59.720Z,102683.34
2019-04-29T04:35:03.206Z,102695.68
2019-04-29T04:37:05.225Z,102691.30
2019-04-29T04:39:07.612Z,102694.33
2019-04-29T04:41:11.671Z,102694.68
2019-04-29T04:43:13.724Z,102695.22
2019-04-29T04:45:15.915Z,102700.25
2019-04-29T04:47:18.998Z,102702.13
2019-04-29T04:49:20.963Z,102704.02
2019-04-29T04:51:23.149Z,102698.23
2019-04-29T04:53:25.164Z,102706.03
2019-04-29T04:55:29.711Z,102705.23
2019-04-29T04:57:31.807Z,102707.13
2019-04-29T04:59:33.816Z,102711.53
2019-04-29T05:01:35.799Z,102713.52
2019-04-29T05:03:37.782Z,102708.05
2019-04-29T05:05:42.624Z,102711.05
2019-04-29T05:07:44.139Z,102713.80
2019-04-29T05:09:46.304Z,102716.55
2019-04-29T05:11:48.462Z,102713.80
2019-04-29T05:13:50.500Z,102716.55
2019-04-29T05:15:52.490Z,102722.58
2019-04-29T05:17:54.534Z,102727.50
2019-04-29T05:19:56.535Z,102726.16
2019-04-29T05:21:59.065Z,102726.95
2019-04-29T05:24:01.132Z,102724.25
2019-04-29T05:26:03.143Z,102721.51
2019-04-29T05:28:05.167Z,102731.11
2019-04-29T05:30:07.514Z,102731.46
2019-04-29T05:32:09.681Z,102729.85
2019-04-29T05:34:12.171Z,102732.61
2019-04-29T05:36:40.180Z,102734.55
2019-04-29T05:38:52.514Z,102738.66
2019-04-29T05:40:56.820Z,102736.47
2019-04-29T05:42:58.426Z,102734.06
2019-04-29T05:45:34.901Z,102730.22
2019-04-29T05:47:42.607Z,102739.33
2019-04-29T05:50:06.620Z,102742.09
2019-04-29T05:52:34.806Z,102741.36
2019-04-29T05:54:40.012Z,102747.42
2019-04-29T05:57:32.865Z,102754.13
2019-04-29T05:59:35.001Z,102753.58
2019-04-29T06:01:37.003Z,102758.59
2019-04-29T06:03:39.816Z,102753.93
2019-04-29T06:05:42.106Z,102755.05
2019-04-29T06:07:44.343Z,102758.34
2019-04-29T06:09:46.320Z,102758.63
2019-04-29T06:11:49.444Z,102762.46
2019-04-29T06:13:51.477Z,102764.97
2019-04-29T06:15:53.642Z,102772.14
2019-04-29T06:17:55.635Z,102770.21
2019-04-29T06:19:57.615Z,102770.77
2019-04-29T06:21:59.606Z,102774.34
2019-04-29T06:24:04.440Z,102776.55
2019-04-29T06:26:05.869Z,102772.97
2019-04-29T06:28:08.012Z,102775.16
2019-04-29T06:30:10.028Z,102777.09
2019-04-29T06:32:12.171Z,102777.36
2019-04-29T06:34:15.260Z,102769.94
2019-04-29T06:36:17.278Z,102779.86
2019-04-29T06:38:19.475Z,102778.20
2019-04-29T06:40:21.460Z,102781.50
2019-04-29T06:42:23.535Z,102785.08
2019-04-29T06:44:25.628Z,102789.45
2019-04-29T06:46:27.637Z,102784.50
2019-04-29T06:48:29.634Z,102780.91
2019-04-29T06:50:31.688Z,102783.10
2019-04-29T06:52:33.814Z,102782.73
2019-04-29T06:54:35.814Z,102783.78
2019-04-29T06:56:37.845Z,102785.08
2019-04-29T06:58:39.857Z,102784.45
2019-04-29T07:00:41.861Z,102786.90
2019-04-29T07:02:45.476Z,102788.29
2019-04-29T07:04:47.791Z,102790.00
2019-04-29T07:06:57.066Z,102795.30
2019-04-29T07:08:53.712Z,102793.04
2019-04-29T07:11:00.687Z,102789.94
2019-04-29T07:12:59.792Z,102797.60
2019-04-29T07:15:01.849Z,102790.97
2019-04-29T07:17:05.681Z,102797.01
2019-04-29T07:19:08.023Z,102800.86
2019-04-29T07:21:11.945Z,102802.42
2019-04-29T07:23:14.437Z,102796.88
2019-04-29T07:25:16.278Z,102804.04
2019-04-29T07:27:18.213Z,102808.09
2019-04-29T07:29:20.746Z,102802.70
2019-04-29T07:31:23.341Z,102806.69
2019-04-29T07:33:25.692Z,102809.34
2019-04-29T07:35:27.696Z,102808.52
2019-04-29T07:37:34.128Z,102813.45
2019-04-29T07:39:34.038Z,102814.19
2019-04-29T07:41:36.237Z,102815.97
2019-04-29T07:43:42.613Z,102813.80
2019-04-29T07:45:52.023Z,102815.77
2019-04-29T07:47:56.896Z,102813.37
2019-04-29T07:50:00.057Z,102820.16
2019-04-29T07:52:02.252Z,102819.59
2019-04-29T07:54:04.236Z,102819.05
2019-04-29T07:56:08.093Z,102826.80
2019-04-29T07:58:10.322Z,102824.19
2019-04-29T08:00:14.594Z,102821.75
2019-04-29T08:02:16.783Z,102830.20
2019-04-29T08:04:18.791Z,102823.23
2019-04-29T08:06:21.014Z,102827.38
2019-04-29T08:08:23.524Z,102829.91
2019-04-29T08:10:28.561Z,102828.83
2019-04-29T08:12:31.594Z,102829.91
2019-04-29T08:14:33.985Z,102826.09
2019-04-29T08:16:35.678Z,102828.67
2019-04-29T08:18:37.907Z,102827.59
2019-04-29T08:20:41.454Z,102837.86
2019-04-29T08:22:44.901Z,102830.86
2019-04-29T08:24:50.576Z,102830.86
2019-04-29T08:26:51.043Z,102832.97
2019-04-29T08:28:59.941Z,102839.86
2019-04-29T08:30:56.772Z,102841.40
2019-04-29T08:32:58.860Z,102838.62
2019-04-29T08:35:03.283Z,102842.38
2019-04-29T08:37:05.031Z,102845.47
2019-04-29T08:39:08.816Z,102843.98
2019-04-29T08:41:11.653Z,102841.84
2019-04-29T08:43:33.572Z,102846.87
2019-04-29T08:45:40.530Z,102842.94
2019-04-29T08:47:44.573Z,102846.00
2019-04-29T08:49:47.070Z,102842.00
2019-04-29T08:51:49.112Z,102844.27
2019-04-29T08:53:51.380Z,102842.29
2019-04-29T08:55:53.398Z,102853.34
2019-04-29T08:57:55.549Z,102847.45
2019-04-29T08:59:57.550Z,102848.12
2019-04-29T09:01:59.870Z,102843.98
2019-04-29T09:04:01.877Z,102843.61
2019-04-29T09:06:06.068Z,102839.14
2019-04-29T09:08:08.150Z,102831.39
2019-04-29T09:10:10.904Z,102831.62
2019-04-29T09:12:12.921Z,102833.91
2019-04-29T09:14:14.984Z,102837.72
2019-04-29T09:16:17.240Z,102843.73
2019-04-29T09:18:19.233Z,102840.64
2019-04-29T09:20:21.297Z,102840.25
2019-04-29T09:22:25.732Z,102834.37
2019-04-29T09:24:27.830Z,102845.45
2019-04-29T09:26:41.130Z,102837.19
2019-04-29T09:28:43.495Z,102838.70
2019-04-29T09:30:45.943Z,102834.30
2019-04-29T09:32:47.952Z,102833.64
2019-04-29T09:34:49.988Z,102829.51
2019-04-29T09:36:52.030Z,102832.60
2019-04-29T09:38:54.080Z,102832.10
2019-04-29T09:41:02.292Z,102831.02
2019-04-29T09:43:27.107Z,102832.48
2019-04-29T09:45:37.714Z,102836.69
2019-04-29T09:47:39.876Z,102836.44
2019-04-29T09:49:41.884Z,102831.55
2019-04-29T09:51:43.909Z,102827.60
2019-04-29T09:53:46.070Z,102834.67
2019-04-29T09:55:49.601Z,102832.08
2019-04-29T09:57:51.948Z,102826.66
2019-04-29T10:00:05.455Z,102840.00
2019-04-29T10:02:31.314Z,102831.14
2019-04-29T10:04:55.562Z,102841.47
2019-04-29T10:06:47.609Z,102834.30
2019-04-29T10:08:49.606Z,102838.39
2019-04-29T10:10:51.586Z,102834.95
2019-04-29T10:12:54.450Z,102836.08
2019-04-29T10:14:56.632Z,102829.50
2019-04-29T10:17:24.598Z,102833.55
2019-04-29T10:19:46.257Z,102823.47
2019-04-29T10:21:48.352Z,102828.09
2019-04-29T10:23:50.545Z,102825.46
2019-04-29T10:25:52.758Z,102826.37
2019-04-29T10:27:54.787Z,102829.14
2019-04-29T10:29:57.230Z,102823.25
2019-04-29T10:32:02.407Z,102824.63
2019-04-29T10:34:06.297Z,102830.69
2019-04-29T10:36:08.674Z,102830.41
2019-04-29T10:38:10.405Z,102830.15
2019-04-29T10:40:38.422Z,102821.23
2019-04-29T10:42:47.175Z,102816.17
2019-04-29T10:45:03.497Z,102819.20
2019-04-29T10:47:32.451Z,102819.84
2019-04-29T10:49:44.344Z,102821.95
2019-04-29T10:51:46.384Z,102818.03
2019-04-29T10:53:51.124Z,102820.34
2019-04-29T10:55:53.003Z,102817.29
2019-04-29T10:57:55.021Z,102822.34
2019-04-29T11:00:03.524Z,102811.64
2019-04-29T11:02:19.890Z,102811.64
2019-04-29T11:04:22.423Z,102810.85
2019-04-29T11:06:24.128Z,102812.23
2019-04-29T11:08:38.242Z,102810.54
2019-04-29T11:10:40.217Z,102810.80
2019-04-29T11:12:43.421Z,102807.14
2019-04-29T11:14:45.562Z,102801.72
2019-04-29T11:16:47.765Z,102804.73
2019-04-29T11:18:49.983Z,102802.44
2019-04-29T11:20:53.807Z,102803.83
2019-04-29T11:23:03.180Z,102811.78
2019-04-29T11:25:18.352Z,102807.64
2019-04-29T11:27:24.695Z,102802.72
2019-04-29T11:29:28.823Z,102797.53
2019-04-29T11:31:31.647Z,102801.12
2019-04-29T11:33:47.451Z,102807.98
2019-04-29T11:36:09.029Z,102810.44
2019-04-29T11:38:11.214Z,102800.48
2019-04-29T11:40:14.831Z,102801.23
2019-04-29T11:42:17.449Z,102796.33
2019-04-29T11:44:21.852Z,102798.59
2019-04-29T11:46:23.560Z,102805.80
2019-04-29T11:48:25.626Z,102801.84
2019-04-29T11:50:45.223Z,102794.94
2019-04-29T11:52:48.150Z,102803.34
2019-04-29T11:54:50.337Z,102795.00
2019-04-29T11:56:52.364Z,102799.17
2019-04-29T11:59:04.363Z,102792.89
2019-04-29T12:01:14.269Z,102793.28
2019-04-29T12:03:18.934Z,102802.10
2019-04-29T12:05:44.701Z,102788.95
2019-04-29T12:07:44.175Z,102796.66
2019-04-29T12:09:47.588Z,102793.83
2019-04-29T12:11:49.896Z,102799.00
2019-04-29T12:14:03.084Z,102793.06
2019-04-29T12:16:09.157Z,102799.59
2019-04-29T12:18:19.458Z,102793.01
2019-04-29T12:20:33.575Z,102794.51
2019-04-29T12:22:47.730Z,102792.73
2019-04-29T12:24:39.531Z,102799.42
2019-04-29T12:26:44.352Z,102801.14
2019-04-29T12:28:45.657Z,102796.89
2019-04-29T12:30:49.609Z,102792.00
2019-04-29T12:33:06.693Z,102791.17
2019-04-29T12:35:30.493Z,102795.39
2019-04-29T12:38:00.675Z,102789.15
2019-04-29T12:40:22.645Z,102800.53
2019-04-29T12:42:43.062Z,102803.23
2019-04-29T12:44:53.947Z,102800.89
2019-04-29T12:47:26.591Z,102799.67
2019-04-29T12:49:26.927Z,102798.20
2019-04-29T12:51:29.059Z,102798.55
2019-04-29T12:53:31.107Z,102795.44
2019-04-29T12:55:45.162Z,102799.61
2019-04-29T12:57:41.711Z,102801.19
2019-04-29T12:59:43.735Z,102798.67
2019-04-29T13:02:14.061Z,102796.70
2019-04-29T13:04:45.145Z,102791.22
2019-04-29T13:06:59.584Z,102791.92
2019-04-29T13:09:17.375Z,102789.28
2019-04-29T13:11:10.693Z,102792.98
2019-04-29T13:13:15.797Z,102794.27
2019-04-29T13:15:26.682Z,102794.84
2019-04-29T13:17:36.428Z,102794.70
2019-04-29T13:20:00.708Z,102792.00
2019-04-29T13:21:54.768Z,102788.46
2019-04-29T13:24:12.525Z,102795.20
2019-04-29T13:26:00.874Z,102784.23
2019-04-29T13:28:04.410Z,102782.20
2019-04-29T13:30:15.069Z,102784.17
2019-04-29T13:32:14.294Z,102784.15
2019-04-29T13:34:33.304Z,102775.74
2019-04-29T13:36:35.004Z,102782.45
2019-04-29T13:38:37.474Z,102780.30
2019-04-29T13:40:39.575Z,102778.94
2019-04-29T13:42:48.529Z,102778.63
2019-04-29T13:45:04.741Z,102779.23
2019-04-29T13:47:09.661Z,102780.02
2019-04-29T13:49:22.450Z,102780.65
2019-04-29T13:51:35.269Z,102782.66
2019-04-29T13:53:29.978Z,102782.53
2019-04-29T13:55:47.721Z,102773.64
2019-04-29T13:57:35.946Z,102774.20
2019-04-29T13:59:49.269Z,102775.20
2019-04-29T14:02:01.275Z,102771.20
2019-04-29T14:04:24.278Z,102777.89
2019-04-29T14:06:21.282Z,102771.33
2019-04-29T14:08:24.152Z,102772.76
2019-04-29T14:10:28.039Z,102773.23
2019-04-29T14:14:33.962Z,102774.31
2019-04-29T14:16:35.980Z,102765.16
2019-04-29T14:18:38.109Z,102764.66
2019-04-29T14:20:40.251Z,102768.30
2019-04-29T14:22:42.453Z,102768.87
2019-04-29T14:24:46.977Z,102772.91
2019-04-29T14:26:49.513Z,102769.02
2019-04-29T14:28:51.638Z,102766.46
2019-04-29T14:30:55.758Z,102770.80
2019-04-29T14:33:09.428Z,102765.70
2019-04-29T14:35:21.466Z,102769.98
2019-04-29T14:37:25.178Z,102769.98
2019-04-29T14:39:36.731Z,102770.23
2019-04-29T14:41:33.428Z,102762.47
2019-04-29T14:43:50.523Z,102768.55
2019-04-29T14:46:16.188Z,102762.82
2019-04-29T14:48:25.909Z,102771.24
2019-04-29T14:50:28.198Z,102766.48
2019-04-29T14:52:30.781Z,102775.52
2019-04-29T14:54:32.411Z,102764.41
2019-04-29T14:56:34.641Z,102768.61
2019-04-29T14:58:36.712Z,102770.66
2019-04-29T15:00:59.068Z,102770.98
2019-04-29T15:03:02.829Z,102766.31
2019-04-29T15:05:07.206Z,102770.25
2019-04-29T15:07:09.533Z,102765.25
2019-04-29T15:09:16.740Z,102769.06
2019-04-29T15:11:31.046Z,102763.38
2019-04-29T15:13:24.617Z,102769.73
2019-04-29T15:16:03.542Z,102768.00
2019-04-29T15:18:25.576Z,102780.34
2019-04-29T15:20:36.467Z,102778.41
2019-04-29T15:22:38.707Z,102771.19
2019-04-29T15:24:40.735Z,102771.39
2019-04-29T15:26:42.794Z,102764.26
2019-04-29T15:28:50.816Z,102765.27
2019-04-29T15:30:53.067Z,102764.63
2019-04-29T15:32:57.883Z,102757.93
2019-04-29T15:34:59.045Z,102774.36
2019-04-29T15:37:01.322Z,102767.04
2019-04-29T15:39:10.901Z,102768.38
2019-04-29T15:41:12.778Z,102760.64
2019-04-29T15:43:17.842Z,102757.20
2019-04-29T15:45:19.026Z,102769.51
2019-04-29T15:47:21.170Z,102760.70
2019-04-29T15:49:24.674Z,102756.52
2019-04-29T15:51:27.213Z,102773.71
2019-04-29T15:53:29.253Z,102760.64
2019-04-29T15:55:34.940Z,102758.52
2019-04-29T15:57:36.060Z,102753.39
2019-04-29T15:59:48.470Z,102759.00
2019-04-29T16:01:42.808Z,102753.13
2019-04-29T16:03:45.115Z,102759.32
2019-04-29T16:06:19.420Z,102762.37
2019-04-29T16:08:18.770Z,102756.50
2019-04-29T16:10:59.268Z,102764.67
2019-04-29T16:13:05.378Z,102760.78
2019-04-29T16:15:07.537Z,102758.72
2019-04-29T16:17:09.780Z,102759.56
2019-04-29T16:19:12.062Z,102758.61
2019-04-29T16:21:14.040Z,102758.09
2019-04-29T16:23:16.183Z,102762.25
2019-04-29T16:25:18.592Z,102767.56
2019-04-29T16:27:20.603Z,102766.05
2019-04-29T16:29:22.674Z,102766.52
2019-04-29T16:31:24.753Z,102760.87
2019-04-29T16:33:26.827Z,102763.20
2019-04-29T16:35:34.651Z,102761.17
2019-04-29T16:37:34.507Z,102759.14
2019-04-29T16:39:36.534Z,102765.23
2019-04-29T16:42:07.129Z,102756.03
2019-04-29T16:44:33.235Z,102761.89
2019-04-29T16:46:24.319Z,102766.40
2019-04-29T16:48:24.483Z,102764.66
2019-04-29T16:50:26.528Z,102760.81
2019-04-29T16:52:28.609Z,102763.84
2019-04-29T16:54:30.875Z,102762.72
2019-04-29T16:56:32.904Z,102764.70
2019-04-29T16:58:35.052Z,102770.72
2019-04-29T17:00:38.963Z,102765.48
2019-04-29T17:02:40.960Z,102763.16
2019-04-29T17:04:44.818Z,102767.64
2019-04-29T17:07:10.657Z,102763.29
2019-04-29T17:09:09.670Z,102761.41
2019-04-29T17:11:19.593Z,102756.13
2019-04-29T17:13:23.826Z,102760.00
2019-04-29T17:15:26.465Z,102760.05
2019-04-29T17:17:29.589Z,102748.45
2019-04-29T17:19:31.744Z,102758.65
2019-04-29T17:21:33.754Z,102749.78
2019-04-29T17:23:36.045Z,102751.53
2019-04-29T17:25:38.036Z,102759.55
2019-04-29T17:28:12.203Z,102759.58
2019-04-29T17:30:38.331Z,102753.45
2019-04-29T17:32:50.686Z,102748.00
2019-04-29T17:34:59.458Z,102760.47
2019-04-29T17:36:57.181Z,102747.38
2019-04-29T17:38:59.817Z,102756.77
2019-04-29T17:41:02.952Z,102752.87
2019-04-29T17:43:21.985Z,102751.71
2019-04-29T17:45:32.359Z,102744.78
2019-04-29T17:48:00.051Z,102749.44
2019-04-29T17:50:39.183Z,102753.13
2019-04-29T17:52:41.078Z,102756.41
2019-04-29T17:54:45.131Z,102749.64
2019-04-29T17:57:16.199Z,102747.95
2019-04-29T17:59:29.612Z,102750.16
2019-04-29T18:01:49.248Z,102749.61
2019-04-29T18:04:02.141Z,102759.55
2019-04-29T18:06:36.316Z,102753.72
2019-04-29T18:08:57.740Z,102754.36
2019-04-29T18:11:06.546Z,102750.16
2019-04-29T18:13:06.634Z,102760.16
2019-04-29T18:15:10.884Z,102754.06
2019-04-29T18:17:24.223Z,102755.44
2019-04-29T18:19:24.758Z,102760.75
2019-04-29T18:21:52.031Z,102757.74
2019-04-29T18:24:08.341Z,102762.53
2019-04-29T18:26:19.086Z,102758.43
2019-04-29T18:28:21.545Z,102763.88
2019-04-29T18:30:35.508Z,102766.13
2019-04-29T18:32:35.590Z,102761.94
2019-04-29T18:34:33.683Z,102766.67
2019-04-29T18:36:37.279Z,102768.37
2019-04-29T18:38:42.435Z,102769.75
2019-04-29T18:40:44.780Z,102767.83
2019-04-29T18:42:48.670Z,102770.91
2019-04-29T18:44:57.716Z,102775.30
2019-04-29T18:46:57.201Z,102772.02
2019-04-29T18:49:03.131Z,102771.47
2019-04-29T18:51:02.611Z,102765.13
2019-04-29T18:53:06.768Z,102769.77
2019-04-29T18:55:08.897Z,102765.93
2019-04-29T18:57:11.120Z,102765.66
2019-04-29T18:59:13.263Z,102772.28
2019-04-29T19:01:16.688Z,102770.03
2019-04-29T19:03:29.726Z,102770.84
2019-04-29T19:05:37.863Z,102774.40
2019-04-29T19:07:39.990Z,102781.59
2019-04-29T19:09:42.682Z,102775.81
2019-04-29T19:11:46.278Z,102777.21
2019-04-29T19:13:52.040Z,102777.19
2019-04-29T19:15:52.743Z,102785.46
2019-04-29T19:17:59.706Z,102777.19
2019-04-29T19:19:58.975Z,102786.84
2019-04-29T19:22:07.773Z,102786.89
2019-04-29T19:24:06.444Z,102791.00
2019-04-29T19:26:08.524Z,102789.40
2019-04-29T19:28:14.281Z,102780.56
2019-04-29T19:30:21.191Z,102792.68
2019-04-29T19:32:23.119Z,102784.19
2019-04-29T19:34:25.267Z,102791.63
2019-04-29T19:36:26.953Z,102803.47
2019-04-29T19:38:29.131Z,102798.25
2019-04-29T19:40:38.980Z,102801.30
2019-04-29T19:42:39.631Z,102791.69
2019-04-29T19:44:39.610Z,102798.55
2019-04-29T19:46:41.653Z,102798.28
2019-04-29T19:48:45.108Z,102798.02
2019-04-29T19:50:50.096Z,102797.18
2019-04-29T19:52:52.646Z,102801.86
2019-04-29T19:54:57.389Z,102805.17
2019-04-29T19:57:03.437Z,102805.16
2019-04-29T19:59:11.593Z,102802.14
2019-04-29T20:01:13.386Z,102810.66
2019-04-29T20:03:22.985Z,102808.73
2019-04-29T20:05:23.644Z,102814.53
2019-04-29T20:07:27.330Z,102812.05
2019-04-29T20:09:30.907Z,102806.84
2019-04-29T20:11:34.640Z,102809.56
2019-04-29T20:13:41.154Z,102810.41
2019-04-29T20:15:48.533Z,102810.13
2019-04-29T20:18:11.125Z,102807.07
2019-04-29T20:20:25.416Z,102810.11
2019-04-29T20:22:27.824Z,102815.09
2019-04-29T20:24:30.344Z,102806.27
2019-04-29T20:26:32.969Z,102804.89
2019-04-29T20:28:36.018Z,102807.61
2019-04-29T20:30:38.508Z,102812.56
2019-04-29T20:32:40.938Z,102807.62
2019-04-29T20:34:42.701Z,102802.68
2019-04-29T20:36:45.690Z,102807.62
2019-04-29T20:38:49.397Z,102810.09
2019-04-29T20:40:51.617Z,102812.05
2019-04-29T20:42:54.012Z,102808.19
2019-04-29T20:44:55.933Z,102809.83
2019-04-29T20:47:16.706Z,102812.56
2019-04-29T20:49:02.193Z,102806.79
2019-04-29T20:51:11.617Z,102805.16
2019-04-29T20:53:30.894Z,102804.87
2019-04-29T20:55:36.708Z,102804.88
2019-04-29T20:57:36.260Z,102797.70
2019-04-29T20:59:42.119Z,102802.92
2019-04-29T21:01:46.095Z,102803.47
2019-04-29T21:03:52.040Z,102800.72
2019-04-29T21:07:08.822Z,102803.20
2019-04-29T21:09:10.920Z,102795.23
2019-04-29T21:11:21.001Z,102797.95
2019-04-29T21:13:43.887Z,102801.29
2019-04-29T21:16:00.179Z,102795.23
2019-04-29T21:18:02.190Z,102795.75
2019-04-29T21:20:05.630Z,102795.98
2019-04-29T21:22:07.628Z,102789.67
2019-04-29T21:24:13.993Z,102794.87
2019-04-29T21:26:15.446Z,102791.31
2019-04-29T21:28:17.926Z,102796.55
2019-04-29T21:30:20.063Z,102791.03
2019-04-29T21:32:22.317Z,102790.20
2019-04-29T21:34:29.633Z,102787.99
2019-04-29T21:36:50.856Z,102789.09
2019-04-29T21:39:06.186Z,102798.19
2019-04-29T21:41:15.577Z,102798.14
2019-04-29T21:43:22.517Z,102794.33
2019-04-29T21:45:25.669Z,102796.25
2019-04-29T21:47:32.053Z,102798.44
2019-04-29T21:49:43.352Z,102800.07
2019-04-29T21:51:36.154Z,102801.51
2019-04-29T21:53:40.310Z,102803.70
2019-04-29T21:55:42.489Z,102800.16
2019-04-29T21:57:47.598Z,102803.98
2019-04-29T21:59:49.593Z,102802.63
2019-04-29T22:01:51.880Z,102804.02
2019-04-29T22:03:57.758Z,102805.38
2019-04-29T22:06:00.293Z,102800.44
2019-04-29T22:08:02.044Z,102802.36
2019-04-29T22:10:06.316Z,102800.95
2019-04-29T22:12:08.685Z,102798.17
2019-04-29T22:14:14.180Z,102804.52
2019-04-29T22:16:15.758Z,102796.23
2019-04-29T22:18:19.108Z,102797.06
2019-04-29T22:20:21.367Z,102803.37
2019-04-29T22:22:26.488Z,102806.98
2019-04-29T22:24:28.563Z,102805.57
2019-04-29T22:26:30.688Z,102802.00
2019-04-29T22:28:32.705Z,102797.56
2019-04-29T22:30:35.413Z,102799.80
2019-04-29T22:32:37.664Z,102800.05
2019-04-29T22:34:39.724Z,102795.68
2019-04-29T22:36:41.773Z,102795.70
2019-04-29T22:38:48.597Z,102801.48
2019-04-29T22:40:48.745Z,102795.98
2019-04-29T22:43:10.809Z,102793.50
2019-04-29T22:45:13.945Z,102792.09
2019-04-29T22:47:17.332Z,102789.09
2019-04-29T22:49:27.287Z,102795.17
2019-04-29T22:51:25.422Z,102790.20
2019-04-29T22:53:27.592Z,102790.21
2019-04-29T22:55:35.705Z,102784.98
2019-04-29T22:57:37.015Z,102788.23
2019-04-29T22:59:38.886Z,102783.28
2019-04-29T23:01:42.423Z,102783.58
2019-04-29T23:03:47.109Z,102776.42
2019-04-29T23:05:49.539Z,102781.38
2019-04-29T23:07:52.870Z,102785.22
2019-04-29T23:09:57.328Z,102780.03
2019-04-29T23:11:59.507Z,102782.79
2019-04-29T23:14:05.724Z,102775.63
2019-04-29T23:16:06.034Z,102765.69
2019-04-29T23:18:08.259Z,102771.23
2019-04-29T23:20:39.185Z,102777.56
2019-04-29T23:22:52.660Z,102774.22
2019-04-29T23:24:57.514Z,102777.82
2019-04-29T23:27:00.142Z,102782.47
2019-04-29T23:29:03.635Z,102779.44
2019-04-29T23:31:09.212Z,102775.34
2019-04-29T23:33:11.447Z,102769.54
2019-04-29T23:35:14.857Z,102767.84
2019-04-29T23:37:19.462Z,102773.92
2019-04-29T23:39:21.507Z,102767.36
2019-04-29T23:41:27.611Z,102767.91
2019-04-29T23:43:28.545Z,102762.39
2019-04-29T23:45:31.149Z,102759.61
2019-04-29T23:47:35.603Z,102758.77
2019-04-29T23:49:42.444Z,102757.11
2019-04-29T23:51:41.805Z,102751.04
2019-04-29T23:53:45.293Z,102750.47
2019-04-29T23:55:47.921Z,102740.53
2019-04-29T23:58:12.503Z,102747.98
